Time;durP1;ratioP1;P1;durP2;ratioP2;P2;SDS_P1;SDS_P2;PMS_P1;PMS_P2;Temp;Humidity;BMP_temperature;BMP_pressure;BME280_temperature;BME280_humidity;BME280_pressure;Samples;Min_cycle;Max_cycle;Signal;HPM_P1;HPM_P2
2021/01/26 00:01:10;;;;;;;46.55;33.97;;;0.70;98.30;;;;;;5063540;23;20320;-79
2021/01/26 00:03:12;;;;;;;58.17;37.97;;;0.70;98.30;;;;;;5064050;23;20245;-79
2021/01/26 00:05:16;;;;;;;50.55;37.47;;;0.60;98.30;;;;;;5073377;23;20208;-79
2021/01/26 00:07:18;;;;;;;50.65;37.40;;;0.60;98.30;;;;;;5066703;23;20210;-79
2021/01/26 00:09:20;;;;;;;51.95;36.28;;;0.60;98.30;;;;;;5066622;23;20231;-79
2021/01/26 00:11:22;;;;;;;52.78;35.67;;;0.70;98.30;;;;;;5074901;23;20690;-79
2021/01/26 00:13:24;;;;;;;59.10;39.08;;;0.60;98.30;;;;;;5065357;23;20207;-80
2021/01/26 00:15:27;;;;;;;52.03;38.70;;;0.60;98.30;;;;;;5073608;23;20270;-80
2021/01/26 00:17:29;;;;;;;55.35;38.75;;;0.60;98.30;;;;;;5073119;23;20723;-80
2021/01/26 00:19:31;;;;;;;53.92;38.72;;;0.60;98.30;;;;;;5073622;23;20395;-80
2021/01/26 00:21:34;;;;;;;54.67;39.20;;;0.60;98.30;;;;;;5073637;23;20255;-80
2021/01/26 00:23:37;;;;;;;55.25;36.67;;;0.60;98.30;;;;;;5073131;23;20224;-80
2021/01/26 00:25:40;;;;;;;53.85;39.03;;;0.60;98.30;;;;;;5072590;23;20679;-79
2021/01/26 00:27:43;;;;;;;60.97;40.22;;;0.60;98.30;;;;;;5073221;23;20207;-79
2021/01/26 00:29:45;;;;;;;51.90;37.53;;;0.60;98.30;;;;;;5073468;23;20241;-80
2021/01/26 00:31:47;;;;;;;49.42;36.78;;;0.60;98.30;;;;;;5073848;23;20203;-80
2021/01/26 00:33:49;;;;;;;54.78;38.25;;;0.60;98.30;;;;;;5064778;23;20254;-79
2021/01/26 00:35:53;;;;;;;58.63;40.30;;;0.60;98.30;;;;;;5073280;23;20679;-80
2021/01/26 00:37:56;;;;;;;51.80;37.97;;;0.60;98.30;;;;;;5073941;23;20238;-80
2021/01/26 00:39:58;;;;;;;49.85;36.88;;;0.70;98.30;;;;;;5074597;23;20326;-80
2021/01/26 00:42:00;;;;;;;54.00;38.65;;;0.60;98.30;;;;;;5073547;23;20790;-80
2021/01/26 00:44:03;;;;;;;55.13;37.40;;;0.70;98.30;;;;;;5074054;23;20234;-80
2021/01/26 00:46:05;;;;;;;50.92;36.45;;;0.70;98.30;;;;;;5067367;23;20213;-80
2021/01/26 00:48:08;;;;;;;55.28;38.08;;;0.70;98.30;;;;;;5078552;23;20206;-80
2021/01/26 00:50:11;;;;;;;52.58;37.75;;;0.70;98.30;;;;;;5074256;23;20207;-81
2021/01/26 00:52:13;;;;;;;51.70;37.92;;;0.80;98.30;;;;;;5074497;23;20291;-79
2021/01/26 00:54:16;;;;;;;52.35;38.33;;;0.80;98.30;;;;;;5074425;23;20606;-79
2021/01/26 00:56:18;;;;;;;64.35;39.33;;;0.80;98.30;;;;;;5074761;23;20286;-81
2021/01/26 00:58:20;;;;;;;55.97;38.85;;;0.80;98.30;;;;;;5074211;23;20212;-79
2021/01/26 01:00:25;;;;;;;58.45;37.47;;;0.80;98.30;;;;;;5066956;23;20219;-78
2021/01/26 01:02:27;;;;;;;53.65;39.53;;;0.70;98.30;;;;;;5075513;23;20230;-79
2021/01/26 01:04:29;;;;;;;54.90;37.80;;;0.70;98.30;;;;;;5076222;23;20251;-79
2021/01/26 01:06:31;;;;;;;55.55;39.92;;;0.70;98.30;;;;;;5075460;23;20527;-79
2021/01/26 01:08:34;;;;;;;53.42;37.53;;;0.70;98.30;;;;;;5067341;23;20540;-79
2021/01/26 01:10:38;;;;;;;54.15;38.90;;;0.70;98.30;;;;;;5067780;23;20219;-79
2021/01/26 01:12:40;;;;;;;58.00;41.70;;;0.70;98.30;;;;;;5077446;23;20891;-79
2021/01/26 01:14:43;;;;;;;59.15;39.47;;;0.60;98.30;;;;;;5077397;23;20233;-79
2021/01/26 01:16:45;;;;;;;55.90;38.60;;;0.60;98.30;;;;;;5076621;23;20204;-80
2021/01/26 01:18:47;;;;;;;50.92;37.67;;;0.50;98.30;;;;;;5075897;23;20263;-80
2021/01/26 01:20:50;;;;;;;53.38;38.42;;;0.60;98.30;;;;;;5069058;23;20239;-80
2021/01/26 01:22:52;;;;;;;52.95;37.45;;;0.50;98.30;;;;;;5077361;23;20204;-79
2021/01/26 01:24:54;;;;;;;54.88;38.88;;;0.50;98.30;;;;;;5068195;23;20207;-79
2021/01/26 01:26:57;;;;;;;55.00;38.20;;;0.50;98.30;;;;;;5068100;23;20294;-80
2021/01/26 01:28:59;;;;;;;51.65;36.58;;;0.60;98.30;;;;;;5075454;23;20218;-79
2021/01/26 01:31:01;;;;;;;52.05;35.83;;;0.60;98.30;;;;;;5076144;23;20928;-79
2021/01/26 01:33:04;;;;;;;54.08;36.53;;;0.60;98.30;;;;;;5067942;23;20208;-79
2021/01/26 01:35:08;;;;;;;52.33;37.72;;;0.60;98.30;;;;;;5067919;23;20216;-79
2021/01/26 01:37:10;;;;;;;55.65;37.00;;;0.70;98.30;;;;;;5075334;23;20213;-79
2021/01/26 01:39:12;;;;;;;51.10;35.90;;;0.70;98.30;;;;;;5075562;23;20301;-80
2021/01/26 01:41:15;;;;;;;51.25;36.55;;;0.70;98.30;;;;;;5075477;23;20219;-79
2021/01/26 01:43:18;;;;;;;50.40;34.72;;;0.60;98.30;;;;;;5067833;23;20714;-79
2021/01/26 01:45:22;;;;;;;52.47;36.22;;;0.50;98.30;;;;;;5076167;23;20291;-79
2021/01/26 01:47:27;;;;;;;51.65;34.30;;;0.50;98.30;;;;;;5075580;23;20230;-79
2021/01/26 01:49:42;;;;;;;50.53;34.28;;;0.50;98.30;;;;;;5075306;23;20236;-79
2021/01/26 01:51:45;;;;;;;48.70;34.75;;;0.50;98.30;;;;;;5067435;23;20536;-79
2021/01/26 01:53:52;;;;;;;49.63;33.72;;;0.40;98.30;;;;;;5067508;23;20668;-79
2021/01/26 01:55:57;;;;;;;48.45;30.85;;;0.40;98.30;;;;;;5075217;23;20705;-80
2021/01/26 01:58:04;;;;;;;45.17;32.45;;;0.40;98.30;;;;;;5074895;23;20230;-80
2021/01/26 02:00:09;;;;;;;50.67;33.63;;;0.30;98.30;;;;;;5074888;23;20250;-80
2021/01/26 02:02:13;;;;;;;45.50;33.20;;;0.30;98.30;;;;;;5075252;23;20607;-80
2021/01/26 02:04:19;;;;;;;47.72;32.80;;;0.30;98.30;;;;;;5074927;23;20215;-79
2021/01/26 02:06:26;;;;;;;47.75;33.63;;;0.20;98.30;;;;;;5066922;23;20300;-80
2021/01/26 02:08:36;;;;;;;44.03;32.35;;;0.20;98.30;;;;;;5067028;23;20214;-80
2021/01/26 02:10:38;;;;;;;51.53;35.05;;;0.20;98.30;;;;;;5067318;23;20593;-80
2021/01/26 02:12:40;;;;;;;48.35;33.42;;;0.10;98.30;;;;;;5067438;23;20247;-79
2021/01/26 02:14:47;;;;;;;45.30;32.88;;;0.10;98.30;;;;;;5066430;23;20204;-80
2021/01/26 02:17:03;;;;;;;45.03;32.08;;;0.20;98.30;;;;;;5067560;23;20527;-78
2021/01/26 02:19:40;;;;;;;42.75;32.67;;;0.10;98.30;;;;;;5066719;23;20941;-79
2021/01/26 02:22:17;;;;;;;45.45;33.15;;;0.00;98.30;;;;;;5075059;23;20204;-79
2021/01/26 02:24:55;;;;;;;47.85;33.28;;;0.00;98.30;;;;;;5052113;23;20216;-79
2021/01/26 02:27:39;;;;;;;49.67;34.50;;;0.00;98.30;;;;;;5067021;23;20239;-79
2021/01/26 02:30:11;;;;;;;49.42;34.38;;;0.00;98.30;;;;;;5066561;23;20207;-79
2021/01/26 02:32:21;;;;;;;45.55;33.53;;;0.00;98.30;;;;;;5075202;23;20696;-79
2021/01/26 02:35:02;;;;;;;51.28;35.20;;;0.00;98.30;;;;;;5075453;23;20216;-78
2021/01/26 02:37:40;;;;;;;51.13;35.20;;;0.00;98.30;;;;;;5075153;23;20671;-79
2021/01/26 02:40:02;;;;;;;46.95;34.72;;;0.00;98.30;;;;;;5066799;23;20314;-79
2021/01/26 02:42:33;;;;;;;47.60;35.20;;;0.00;98.30;;;;;;5066197;23;20698;-81
2021/01/26 02:44:41;;;;;;;47.88;33.70;;;0.10;98.30;;;;;;5065340;23;20203;-79
2021/01/26 02:46:46;;;;;;;44.95;32.65;;;0.10;98.30;;;;;;5067185;23;20246;-78
2021/01/26 02:49:05;;;;;;;45.03;33.13;;;0.20;98.30;;;;;;5066552;23;20215;-80
2021/01/26 02:51:11;;;;;;;46.17;32.22;;;0.20;98.30;;;;;;5075507;23;20211;-79
2021/01/26 02:53:18;;;;;;;47.50;34.30;;;0.20;98.30;;;;;;5075049;23;20200;-79
2021/01/26 02:55:29;;;;;;;50.90;34.20;;;0.30;98.30;;;;;;5074790;23;20869;-80
2021/01/26 02:57:37;;;;;;;47.92;32.88;;;0.30;98.30;;;;;;5067098;23;20200;-79
2021/01/26 02:59:47;;;;;;;53.72;35.08;;;0.30;98.30;;;;;;5074603;23;20204;-80
2021/01/26 03:01:53;;;;;;;45.42;32.40;;;0.20;98.30;;;;;;5074586;23;20207;-79
2021/01/26 03:04:02;;;;;;;48.10;33.40;;;0.20;98.30;;;;;;5066713;23;20263;-79
2021/01/26 03:06:08;;;;;;;47.10;33.22;;;0.20;98.30;;;;;;5074943;23;20218;-80
2021/01/26 03:08:15;;;;;;;46.40;34.17;;;0.30;98.30;;;;;;5066909;23;20208;-79
2021/01/26 03:10:25;;;;;;;47.13;32.78;;;0.30;98.30;;;;;;5066880;23;20544;-79
2021/01/26 03:12:32;;;;;;;42.65;31.77;;;0.20;98.30;;;;;;5075132;23;20206;-80
2021/01/26 03:14:39;;;;;;;45.13;32.65;;;0.30;98.30;;;;;;5067101;23;20259;-79
2021/01/26 03:16:46;;;;;;;43.25;32.40;;;0.30;98.30;;;;;;5078591;23;20251;-80
2021/01/26 03:18:52;;;;;;;42.08;31.88;;;0.50;98.30;;;;;;5078948;23;20230;-80
2021/01/26 03:20:58;;;;;;;48.42;32.13;;;0.60;98.30;;;;;;5067296;23;20212;-79
2021/01/26 03:23:04;;;;;;;46.95;29.55;;;0.70;98.30;;;;;;5066999;23;20215;-80
2021/01/26 03:25:09;;;;;;;47.78;32.22;;;0.60;98.30;;;;;;5066974;23;20212;-79
2021/01/26 03:27:23;;;;;;;43.25;30.60;;;0.60;98.30;;;;;;5066683;23;20215;-80
2021/01/26 03:29:30;;;;;;;42.50;30.17;;;0.60;98.30;;;;;;5072548;23;20266;-81
2021/01/26 03:31:36;;;;;;;39.85;31.15;;;0.50;98.30;;;;;;5064403;23;20212;-80
2021/01/26 03:33:45;;;;;;;47.10;32.15;;;0.50;98.30;;;;;;5076161;23;20712;-81
2021/01/26 03:35:47;;;;;;;42.75;31.58;;;0.40;98.30;;;;;;5068675;23;20208;-81
2021/01/26 03:37:57;;;;;;;39.95;28.75;;;0.60;98.30;;;;;;5077012;23;20679;-80
2021/01/26 03:39:59;;;;;;;48.03;31.92;;;0.70;98.30;;;;;;5068712;23;20583;-80
2021/01/26 03:42:01;;;;;;;42.58;30.85;;;0.70;98.30;;;;;;5075626;23;20715;-80
2021/01/26 03:44:05;;;;;;;43.60;30.33;;;0.80;98.30;;;;;;5067674;23;20212;-80
2021/01/26 03:46:20;;;;;;;39.55;27.95;;;0.80;98.30;;;;;;5075543;23;20524;-80
2021/01/26 03:48:30;;;;;;;43.50;31.40;;;0.70;98.30;;;;;;5074732;23;20211;-80
2021/01/26 03:50:47;;;;;;;45.28;31.05;;;0.70;98.30;;;;;;5066576;23;20282;-80
2021/01/26 03:53:12;;;;;;;40.83;29.85;;;0.70;98.30;;;;;;5066549;23;20207;-80
2021/01/26 03:55:27;;;;;;;48.17;30.77;;;0.60;98.30;;;;;;5074538;23;20227;-80
2021/01/26 03:57:38;;;;;;;46.38;28.50;;;0.60;98.30;;;;;;5078283;23;20567;-79
2021/01/26 03:59:55;;;;;;;45.25;31.67;;;0.50;98.30;;;;;;5074036;23;20218;-79
2021/01/26 04:02:06;;;;;;;40.78;28.40;;;0.60;98.30;;;;;;5087787;23;20680;-79
2021/01/26 04:04:18;;;;;;;40.38;30.00;;;0.70;98.30;;;;;;5088398;23;20200;-80
2021/01/26 04:06:27;;;;;;;46.15;31.70;;;0.90;98.30;;;;;;5088358;23;20636;-79
2021/01/26 04:08:34;;;;;;;47.05;33.58;;;0.90;98.30;;;;;;5078451;23;20241;-79
2021/01/26 04:10:43;;;;;;;42.65;31.25;;;1.00;98.30;;;;;;5077350;23;20287;-79
2021/01/26 04:12:49;;;;;;;46.20;32.10;;;1.10;98.30;;;;;;5075076;23;20211;-79
2021/01/26 04:14:57;;;;;;;48.65;33.30;;;1.20;98.30;;;;;;5083604;23;20204;-80
2021/01/26 04:17:05;;;;;;;44.22;31.45;;;1.20;98.30;;;;;;5078504;23;20203;-80
2021/01/26 04:19:10;;;;;;;43.85;32.45;;;1.30;98.30;;;;;;5086297;23;20219;-80
2021/01/26 04:21:12;;;;;;;47.80;31.95;;;1.40;98.30;;;;;;5086501;23;20207;-80
2021/01/26 04:23:14;;;;;;;44.88;30.98;;;1.40;98.30;;;;;;5087132;23;20227;-80
2021/01/26 04:25:28;;;;;;;46.45;31.50;;;1.50;98.30;;;;;;5086270;23;20204;-80
2021/01/26 04:27:31;;;;;;;43.70;30.90;;;1.50;98.30;;;;;;5086958;23;20212;-80
2021/01/26 04:29:34;;;;;;;45.55;31.02;;;1.50;98.30;;;;;;5078625;23;20204;-80
2021/01/26 04:31:37;;;;;;;43.63;30.60;;;1.50;98.30;;;;;;5079134;23;20218;-80
2021/01/26 04:33:39;;;;;;;43.00;28.30;;;1.50;98.30;;;;;;5087772;23;20595;-80
2021/01/26 04:35:43;;;;;;;44.25;31.05;;;1.50;98.30;;;;;;5077148;23;20291;-80
2021/01/26 04:37:45;;;;;;;43.75;30.85;;;1.50;98.30;;;;;;5088261;23;20200;-80
2021/01/26 04:39:47;;;;;;;42.22;30.50;;;1.50;98.30;;;;;;5089833;23;20208;-80
2021/01/26 04:41:53;;;;;;;41.85;29.80;;;1.60;98.30;;;;;;5082358;23;20298;-80
2021/01/26 04:44:25;;;;;;;46.55;31.40;;;1.40;98.30;;;;;;5091388;23;20204;-80
2021/01/26 04:46:31;;;;;;;44.50;30.15;;;1.40;98.30;;;;;;5083160;23;20208;-80
2021/01/26 04:48:42;;;;;;;44.13;30.63;;;1.40;98.30;;;;;;5088894;23;20215;-80
2021/01/26 04:50:53;;;;;;;43.30;31.02;;;1.50;98.30;;;;;;5086862;23;20282;-80
2021/01/26 04:53:22;;;;;;;40.22;28.77;;;1.50;98.30;;;;;;5087523;23;20218;-80
2021/01/26 04:55:31;;;;;;;43.40;30.88;;;1.60;98.30;;;;;;5077176;23;20223;-80
2021/01/26 04:57:44;;;;;;;38.25;25.10;;;1.60;98.30;;;;;;5086577;23;20200;-80
2021/01/26 05:00:04;;;;;;;43.40;28.38;;;1.60;98.30;;;;;;5078810;23;20656;-80
2021/01/26 05:02:28;;;;;;;39.38;30.10;;;1.60;98.30;;;;;;5086627;23;20228;-79
2021/01/26 05:04:35;;;;;;;40.92;25.67;;;1.60;98.30;;;;;;5078675;23;20579;-80
2021/01/26 05:06:42;;;;;;;34.47;25.55;;;1.60;98.30;;;;;;5078862;23;20743;-79
2021/01/26 05:08:50;;;;;;;42.90;28.73;;;1.60;98.30;;;;;;5087936;23;20236;-80
2021/01/26 05:11:00;;;;;;;42.50;29.63;;;1.50;98.30;;;;;;5079489;23;20220;-79
2021/01/26 05:13:06;;;;;;;35.60;24.88;;;1.50;98.30;;;;;;5088108;23;20204;-80
2021/01/26 05:15:11;;;;;;;46.63;30.75;;;1.50;98.30;;;;;;5079998;23;20212;-81
2021/01/26 05:17:18;;;;;;;42.17;29.58;;;1.40;98.30;;;;;;5088132;23;20211;-80
2021/01/26 05:19:25;;;;;;;40.47;28.98;;;1.40;98.30;;;;;;5079852;23;20218;-80
2021/01/26 05:21:37;;;;;;;37.78;25.35;;;1.40;98.30;;;;;;5088513;23;20208;-80
2021/01/26 05:23:43;;;;;;;35.58;23.33;;;1.30;98.30;;;;;;5088643;23;20223;-80
2021/01/26 05:25:46;;;;;;;39.38;28.52;;;1.30;98.30;;;;;;5088321;23;20204;-80
2021/01/26 05:27:49;;;;;;;41.33;30.23;;;1.20;98.30;;;;;;5089119;23;20208;-80
2021/01/26 05:29:51;;;;;;;39.47;29.65;;;1.20;98.30;;;;;;5079251;23;20236;-80
2021/01/26 05:31:58;;;;;;;47.65;31.02;;;1.10;98.30;;;;;;5087146;23;20207;-80
2021/01/26 05:34:06;;;;;;;39.72;29.63;;;1.10;98.30;;;;;;5080555;23;20250;-80
2021/01/26 05:36:09;;;;;;;44.58;30.40;;;1.10;98.30;;;;;;5090002;23;20208;-80
2021/01/26 05:38:11;;;;;;;61.25;41.30;;;1.10;98.30;;;;;;5080992;23;20212;-80
2021/01/26 05:40:19;;;;;;;58.72;40.13;;;1.10;98.30;;;;;;5089203;23;20208;-80
2021/01/26 05:42:24;;;;;;;49.80;34.20;;;1.10;98.30;;;;;;5089562;23;20207;-80
2021/01/26 05:44:27;;;;;;;42.30;31.50;;;1.10;98.30;;;;;;5090489;23;20248;-80
2021/01/26 05:46:33;;;;;;;42.75;30.67;;;1.10;98.30;;;;;;5093984;23;20707;-80
2021/01/26 05:48:50;;;;;;;43.17;30.58;;;1.00;98.30;;;;;;5081786;23;20223;-80
2021/01/26 05:51:13;;;;;;;45.10;31.08;;;1.00;98.30;;;;;;5081710;23;20228;-80
2021/01/26 05:53:23;;;;;;;46.92;31.08;;;0.90;98.30;;;;;;5082379;23;20219;-80
2021/01/26 05:55:28;;;;;;;46.85;32.15;;;0.90;98.30;;;;;;5078955;23;20230;-81
2021/01/26 05:57:34;;;;;;;46.08;30.55;;;0.90;98.30;;;;;;5086247;23;20208;-80
2021/01/26 05:59:37;;;;;;;44.08;32.00;;;0.90;98.30;;;;;;5084722;23;20224;-80
2021/01/26 06:01:40;;;;;;;47.92;31.67;;;0.90;98.30;;;;;;5085497;23;20207;-81
2021/01/26 06:03:42;;;;;;;48.65;31.95;;;0.80;98.30;;;;;;5084739;23;20204;-80
2021/01/26 06:05:59;;;;;;;44.58;31.30;;;0.80;98.30;;;;;;5077194;23;20874;-80
2021/01/26 06:08:07;;;;;;;43.17;30.98;;;0.70;98.30;;;;;;5078431;23;20227;-80
2021/01/26 06:10:19;;;;;;;47.63;34.13;;;0.60;98.30;;;;;;5078192;23;20644;-80
2021/01/26 06:12:24;;;;;;;50.70;35.10;;;0.60;98.30;;;;;;5077977;23;20212;-80
2021/01/26 06:14:26;;;;;;;178.35;108.57;;;0.60;98.30;;;;;;5086335;23;20283;-80
2021/01/26 06:16:28;;;;;;;137.50;85.85;;;0.60;98.30;;;;;;5086209;23;20211;-80
2021/01/26 06:18:32;;;;;;;264.65;182.90;;;0.60;98.30;;;;;;5084959;23;20204;-80
2021/01/26 06:20:36;;;;;;;103.45;63.08;;;0.60;98.30;;;;;;5076475;23;20742;-80
2021/01/26 06:22:38;;;;;;;52.22;36.63;;;0.60;98.30;;;;;;5085129;23;20202;-80
2021/01/26 06:24:40;;;;;;;54.60;37.63;;;0.70;98.30;;;;;;5075872;23;20215;-80
2021/01/26 06:26:50;;;;;;;56.65;37.50;;;0.60;98.30;;;;;;5085380;23;20269;-80
2021/01/26 06:29:12;;;;;;;50.15;36.05;;;0.50;98.30;;;;;;5085664;23;20204;-80
2021/01/26 06:31:26;;;;;;;57.10;36.53;;;0.50;98.30;;;;;;5086550;23;20536;-80
2021/01/26 06:33:55;;;;;;;57.00;40.20;;;0.40;98.30;;;;;;5078828;23;20295;-80
2021/01/26 06:36:09;;;;;;;56.08;39.42;;;0.40;98.30;;;;;;5078581;23;20215;-80
2021/01/26 06:38:33;;;;;;;52.92;37.85;;;0.40;98.30;;;;;;5079649;23;20206;-80
2021/01/26 06:41:07;;;;;;;52.47;36.33;;;0.30;98.30;;;;;;5078343;23;20259;-80
2021/01/26 06:43:24;;;;;;;49.65;36.10;;;0.30;98.30;;;;;;5087740;23;20217;-79
2021/01/26 06:45:31;;;;;;;53.13;37.15;;;0.30;98.30;;;;;;5079419;23;20926;-81
2021/01/26 06:48:20;;;;;;;55.60;38.58;;;0.30;98.30;;;;;;5088164;23;20210;-80
2021/01/26 06:50:36;;;;;;;50.58;36.22;;;0.40;98.30;;;;;;5080586;23;20211;-80
2021/01/26 06:52:55;;;;;;;54.70;38.30;;;0.40;98.30;;;;;;5081040;23;20219;-80
2021/01/26 06:55:15;;;;;;;50.38;36.60;;;0.40;98.30;;;;;;5088602;23;20196;-80
2021/01/26 06:57:46;;;;;;;42.22;32.67;;;0.40;98.30;;;;;;5088474;23;20259;-80
2021/01/26 07:00:30;;;;;;;102.80;64.85;;;0.40;98.30;;;;;;5079368;23;20691;-79
2021/01/26 07:03:08;;;;;;;189.00;114.78;;;0.40;98.30;;;;;;5079450;23;20218;-80
2021/01/26 07:05:24;;;;;;;74.13;49.50;;;0.40;98.30;;;;;;5078797;23;20218;-80
2021/01/26 07:07:58;;;;;;;59.15;39.58;;;0.40;98.30;;;;;;5080124;23;20207;-80
2021/01/26 07:10:30;;;;;;;51.03;36.50;;;0.30;98.30;;;;;;5070751;23;20685;-80
2021/01/26 07:12:51;;;;;;;50.55;34.97;;;0.30;98.30;;;;;;5079575;23;20513;-80
2021/01/26 07:15:10;;;;;;;45.97;34.88;;;0.30;98.30;;;;;;5080456;23;20204;-80
2021/01/26 07:17:24;;;;;;;46.20;34.35;;;0.30;98.30;;;;;;5081806;23;20204;-80
2021/01/26 07:19:53;;;;;;;46.65;33.95;;;0.30;98.30;;;;;;5087295;23;20204;-80
2021/01/26 07:22:26;;;;;;;45.08;34.30;;;0.40;98.30;;;;;;5087696;23;20204;-80
2021/01/26 07:24:39;;;;;;;47.22;35.20;;;0.40;98.30;;;;;;5074516;23;20208;-80
2021/01/26 07:27:20;;;;;;;47.05;34.60;;;0.50;98.30;;;;;;5078966;23;20293;-80
2021/01/26 07:29:42;;;;;;;45.72;33.55;;;0.50;98.30;;;;;;5079740;23;20686;-80
2021/01/26 07:31:48;;;;;;;47.33;33.40;;;0.50;98.30;;;;;;5078952;23;20212;-81
2021/01/26 07:33:59;;;;;;;51.38;35.05;;;0.60;98.30;;;;;;5086670;23;20263;-80
2021/01/26 07:36:11;;;;;;;50.28;38.33;;;0.60;98.30;;;;;;5088648;23;20208;-80
2021/01/26 07:38:20;;;;;;;51.00;34.92;;;0.60;98.30;;;;;;5079288;23;20204;-80
2021/01/26 07:40:29;;;;;;;46.95;35.80;;;0.60;98.30;;;;;;5079656;23;20235;-80
2021/01/26 07:42:37;;;;;;;61.33;37.60;;;0.60;98.30;;;;;;5088573;23;20203;-81
2021/01/26 07:44:44;;;;;;;48.70;35.80;;;0.70;98.30;;;;;;5087188;23;20230;-80
2021/01/26 07:46:54;;;;;;;54.35;39.25;;;0.70;98.30;;;;;;5087481;23;20208;-80
2021/01/26 07:49:05;;;;;;;50.08;38.38;;;0.70;98.30;;;;;;5086960;23;20576;-80
2021/01/26 07:51:14;;;;;;;50.30;36.72;;;0.70;98.30;;;;;;5087740;23;20226;-80
2021/01/26 07:53:23;;;;;;;52.70;38.50;;;0.70;98.30;;;;;;5077285;23;20264;-78
2021/01/26 07:55:32;;;;;;;50.80;35.70;;;0.70;98.30;;;;;;5076176;23;20212;-79
2021/01/26 07:57:39;;;;;;;56.65;38.00;;;0.60;98.30;;;;;;5077129;23;20239;-78
2021/01/26 07:59:52;;;;;;;57.75;40.17;;;0.60;98.30;;;;;;5086528;23;20623;-81
2021/01/26 08:01:57;;;;;;;56.13;41.45;;;0.60;98.30;;;;;;5086473;23;20210;-81
2021/01/26 08:04:05;;;;;;;56.20;38.70;;;0.60;98.30;;;;;;5087529;23;20717;-80
2021/01/26 08:06:33;;;;;;;57.55;42.05;;;0.60;98.30;;;;;;5087529;23;20215;-80
2021/01/26 08:08:38;;;;;;;60.17;40.80;;;0.60;98.30;;;;;;5086120;23;20221;-80
2021/01/26 08:10:40;;;;;;;69.07;43.33;;;0.80;98.30;;;;;;5088331;23;20216;-80
2021/01/26 08:12:45;;;;;;;62.90;42.85;;;0.90;98.30;;;;;;5083323;23;20243;-80
2021/01/26 08:14:50;;;;;;;58.15;41.50;;;1.00;98.30;;;;;;5090391;23;20204;-80
2021/01/26 08:16:56;;;;;;;57.03;40.78;;;1.10;98.30;;;;;;5088116;23;20204;-80
2021/01/26 08:19:00;;;;;;;67.72;42.13;;;1.20;98.30;;;;;;5087049;23;20204;-80
2021/01/26 08:21:30;;;;;;;63.35;40.08;;;1.30;98.30;;;;;;5088036;23;20204;-80
2021/01/26 08:23:33;;;;;;;55.40;40.08;;;1.40;98.30;;;;;;5087500;23;20201;-80
2021/01/26 08:25:37;;;;;;;57.10;37.70;;;1.50;98.30;;;;;;5078579;23;20231;-80
2021/01/26 08:27:55;;;;;;;60.60;38.70;;;1.70;98.30;;;;;;5075583;23;20216;-80
2021/01/26 08:29:59;;;;;;;56.33;41.28;;;1.80;98.30;;;;;;5083811;23;20227;-80
2021/01/26 08:32:42;;;;;;;48.83;36.55;;;1.90;98.30;;;;;;5075132;23;20755;-80
2021/01/26 08:34:58;;;;;;;51.97;38.42;;;2.00;98.30;;;;;;5075768;23;20283;-80
2021/01/26 08:37:25;;;;;;;60.08;41.50;;;1.70;98.30;;;;;;5077201;23;20710;-80
2021/01/26 08:39:41;;;;;;;57.30;39.33;;;1.80;98.30;;;;;;5084521;23;20224;-80
2021/01/26 08:41:46;;;;;;;53.92;36.63;;;1.70;98.30;;;;;;5086319;23;20204;-80
2021/01/26 08:43:50;;;;;;;57.00;39.33;;;1.80;98.30;;;;;;5086890;23;20204;-80
2021/01/26 08:45:55;;;;;;;49.60;36.85;;;1.80;98.30;;;;;;5079396;23;20291;-80
2021/01/26 08:47:59;;;;;;;50.42;36.28;;;1.80;98.30;;;;;;5078465;23;20235;-80
2021/01/26 08:50:12;;;;;;;52.00;37.50;;;1.90;98.30;;;;;;5079013;23;20848;-80
2021/01/26 08:52:29;;;;;;;48.75;35.17;;;1.90;98.30;;;;;;5087107;23;20270;-80
2021/01/26 08:54:40;;;;;;;61.20;41.80;;;1.90;98.30;;;;;;5079576;23;20216;-80
2021/01/26 08:56:43;;;;;;;51.00;37.05;;;2.00;98.30;;;;;;5080014;23;20208;-80
2021/01/26 08:58:48;;;;;;;57.25;35.95;;;2.10;98.30;;;;;;5081759;23;20208;-80
2021/01/26 09:00:50;;;;;;;50.50;35.25;;;2.10;98.30;;;;;;5088635;23;20212;-80
2021/01/26 09:02:54;;;;;;;49.92;36.00;;;2.10;98.30;;;;;;5088920;23;20208;-80
2021/01/26 09:04:57;;;;;;;51.00;33.92;;;2.10;98.30;;;;;;5089431;23;20646;-80
2021/01/26 09:07:00;;;;;;;56.22;38.58;;;2.10;98.30;;;;;;5089166;23;20236;-80
2021/01/26 09:09:02;;;;;;;46.20;32.60;;;2.10;98.30;;;;;;5089202;23;20537;-80
2021/01/26 09:11:06;;;;;;;50.42;37.00;;;2.10;98.30;;;;;;5089664;23;20204;-80
2021/01/26 09:13:14;;;;;;;50.25;35.67;;;2.10;98.30;;;;;;5089412;23;20259;-82
2021/01/26 09:15:17;;;;;;;50.45;35.90;;;2.00;98.30;;;;;;5076516;23;20262;-80
2021/01/26 09:17:26;;;;;;;52.63;37.80;;;2.00;98.30;;;;;;5081672;23;20443;-80
2021/01/26 09:19:32;;;;;;;52.95;34.95;;;2.00;98.30;;;;;;5082328;23;20207;-80
2021/01/26 09:21:36;;;;;;;57.08;35.90;;;2.10;98.30;;;;;;5075161;23;20212;-80
2021/01/26 09:23:40;;;;;;;53.10;36.33;;;2.10;98.30;;;;;;5081542;23;20206;-80
2021/01/26 09:25:45;;;;;;;48.63;33.40;;;2.10;98.30;;;;;;5082743;23;20266;-80
2021/01/26 09:27:57;;;;;;;49.17;34.10;;;2.10;98.30;;;;;;5075635;23;20845;-80
2021/01/26 09:30:06;;;;;;;52.47;35.47;;;2.10;98.30;;;;;;5083694;23;20231;-80
2021/01/26 09:32:09;;;;;;;53.78;36.15;;;2.10;98.30;;;;;;5085346;23;20667;-80
2021/01/26 09:34:11;;;;;;;77.55;49.25;;;2.10;98.30;;;;;;5077248;23;20905;-80
2021/01/26 09:36:16;;;;;;;56.20;37.67;;;2.00;98.30;;;;;;5084311;23;20609;-80
2021/01/26 09:38:22;;;;;;;55.28;38.08;;;2.10;98.30;;;;;;5077031;23;20857;-80
2021/01/26 09:40:27;;;;;;;60.78;38.13;;;2.00;98.30;;;;;;5076931;23;20218;-80
2021/01/26 09:42:30;;;;;;;57.28;38.60;;;2.00;98.30;;;;;;5077015;23;20212;-80
2021/01/26 09:44:32;;;;;;;60.85;40.17;;;2.00;98.30;;;;;;5076009;23;20219;-80
2021/01/26 09:46:36;;;;;;;53.45;36.72;;;2.00;98.30;;;;;;5082635;23;20208;-80
2021/01/26 09:48:41;;;;;;;54.47;38.72;;;2.00;98.30;;;;;;5075109;23;20212;-80
2021/01/26 09:50:43;;;;;;;54.10;36.20;;;2.00;98.30;;;;;;5082927;23;20282;-80
2021/01/26 09:52:46;;;;;;;56.63;38.28;;;2.00;98.30;;;;;;5074439;23;20283;-80
2021/01/26 09:55:01;;;;;;;54.92;36.92;;;2.00;98.30;;;;;;5083996;23;20208;-80
2021/01/26 09:57:05;;;;;;;58.50;38.40;;;1.90;98.30;;;;;;5076597;23;20244;-80
2021/01/26 09:59:08;;;;;;;55.80;37.53;;;2.00;98.30;;;;;;5075952;23;20208;-80
2021/01/26 10:01:11;;;;;;;60.20;38.13;;;2.00;98.30;;;;;;5084663;23;20211;-80
2021/01/26 10:03:14;;;;;;;51.75;36.97;;;2.10;98.30;;;;;;5086804;23;20215;-80
2021/01/26 10:05:18;;;;;;;54.05;36.72;;;2.20;98.30;;;;;;5078983;23;20683;-80
2021/01/26 10:07:20;;;;;;;57.40;39.20;;;2.30;98.30;;;;;;5071913;23;20212;-80
2021/01/26 10:09:28;;;;;;;55.10;39.30;;;2.50;98.30;;;;;;5077543;23;20259;-80
2021/01/26 10:11:31;;;;;;;57.05;37.90;;;3.00;98.30;;;;;;5069691;23;20238;-80
2021/01/26 10:13:37;;;;;;;50.30;33.55;;;3.50;98.30;;;;;;5078196;23;20196;-80
2021/01/26 10:15:40;;;;;;;47.58;34.80;;;3.90;98.30;;;;;;5070058;23;20303;-80
2021/01/26 10:17:45;;;;;;;47.90;28.98;;;4.20;98.30;;;;;;5073305;23;20421;-80
2021/01/26 10:19:55;;;;;;;44.58;27.63;;;4.50;98.30;;;;;;5067974;23;20595;-80
2021/01/26 10:22:09;;;;;;;42.08;26.85;;;4.50;98.30;;;;;;5068635;23;20208;-80
2021/01/26 10:24:22;;;;;;;39.20;27.53;;;4.60;98.30;;;;;;5077020;23;20204;-80
2021/01/26 10:26:26;;;;;;;38.78;27.17;;;4.70;98.30;;;;;;5068365;23;20455;-80
2021/01/26 10:28:29;;;;;;;42.10;26.25;;;4.60;98.30;;;;;;5068355;23;20692;-79
2021/01/26 10:30:41;;;;;;;35.72;24.45;;;4.60;98.30;;;;;;5068512;23;20611;-80
2021/01/26 10:32:46;;;;;;;29.17;19.50;;;4.80;98.30;;;;;;5068868;23;20669;-80
2021/01/26 10:34:49;;;;;;;37.27;23.83;;;4.80;98.30;;;;;;5068419;23;20251;-80
2021/01/26 10:36:51;;;;;;;34.23;22.20;;;4.90;98.30;;;;;;5068865;23;20507;-80
2021/01/26 10:38:54;;;;;;;32.60;21.50;;;5.20;98.30;;;;;;5068469;23;20452;-80
2021/01/26 10:41:19;;;;;;;34.10;21.83;;;5.40;98.30;;;;;;5068721;23;20522;-80
2021/01/26 10:43:23;;;;;;;29.37;21.93;;;5.40;98.30;;;;;;5069370;23;20452;-80
2021/01/26 10:45:42;;;;;;;34.23;21.57;;;5.60;98.30;;;;;;5077190;23;20443;-80
2021/01/26 10:47:44;;;;;;;30.60;20.40;;;5.70;98.30;;;;;;5069276;23;20519;-80
2021/01/26 10:49:54;;;;;;;37.70;21.90;;;5.80;98.30;;;;;;5069228;23;20459;-80
2021/01/26 10:51:55;;;;;;;27.83;21.00;;;5.70;98.30;;;;;;5070368;23;20494;-80
2021/01/26 10:53:57;;;;;;;31.03;20.37;;;5.80;98.30;;;;;;5077963;23;20483;-80
2021/01/26 10:56:00;;;;;;;31.13;20.50;;;6.00;98.30;;;;;;5078266;23;20454;-80
2021/01/26 10:58:03;;;;;;;29.67;20.93;;;6.10;98.30;;;;;;5070375;23;20480;-80
2021/01/26 11:00:08;;;;;;;27.30;19.70;;;6.40;98.30;;;;;;5069049;23;20437;-80
2021/01/26 11:02:12;;;;;;;26.73;19.60;;;6.60;98.30;;;;;;5077695;23;20422;-80